createdAt,value
2022-09-09T00:02:20.495Z,5.77
2022-09-09T00:04:54.045Z,2.37
2022-09-09T00:07:27.447Z,3.23
2022-09-09T00:10:01.985Z,4.00
2022-09-09T00:12:35.987Z,2.07
2022-09-09T00:15:07.128Z,1.07
2022-09-09T00:17:40.585Z,4.50
2022-09-09T00:20:13.583Z,2.07
2022-09-09T00:22:50.395Z,2.17
2022-09-09T00:25:23.128Z,4.97
2022-09-09T00:27:51.661Z,3.30
2022-09-09T00:30:23.318Z,3.50
2022-09-09T00:32:52.764Z,4.90
2022-09-09T00:35:25.020Z,5.70
2022-09-09T00:37:56.782Z,2.87
2022-09-09T00:40:27.866Z,9.83
2022-09-09T00:43:08.486Z,3.63
2022-09-09T00:45:52.023Z,2.03
2022-09-09T00:48:20.085Z,2.03
2022-09-09T00:50:53.216Z,4.63
2022-09-09T00:53:30.870Z,1.53
2022-09-09T00:56:09.258Z,5.10
2022-09-09T00:58:37.113Z,2.33
2022-09-09T01:01:08.469Z,2.53
2022-09-09T01:03:37.958Z,4.77
2022-09-09T01:06:16.454Z,2.03
2022-09-09T01:09:09.446Z,6.43
2022-09-09T01:11:46.182Z,10.03
2022-09-09T01:14:26.315Z,21.80
2022-09-09T01:16:56.767Z,29.13
2022-09-09T01:19:34.066Z,53.23
2022-09-09T01:22:06.282Z,63.30
2022-09-09T01:24:41.462Z,55.17
2022-09-09T01:27:10.765Z,49.50
2022-09-09T01:29:38.278Z,42.33
2022-09-09T01:32:39.316Z,31.37
2022-09-09T01:35:08.462Z,36.40
2022-09-09T01:37:36.024Z,38.53
2022-09-09T01:40:04.469Z,26.63
2022-09-09T01:42:33.483Z,9.33
2022-09-09T01:45:01.299Z,5.43
2022-09-09T01:47:29.237Z,8.70
2022-09-09T01:49:56.761Z,5.67
2022-09-09T01:52:24.566Z,9.10
2022-09-09T01:54:52.134Z,9.97
2022-09-09T01:57:23.307Z,5.37
2022-09-09T01:59:59.876Z,6.83
2022-09-09T02:02:29.294Z,6.53
2022-09-09T02:04:59.255Z,9.83
2022-09-09T02:07:35.480Z,4.00
2022-09-09T02:10:06.135Z,4.47
2022-09-09T02:12:34.068Z,5.00
2022-09-09T02:15:05.891Z,10.50
2022-09-09T02:17:36.427Z,11.43
2022-09-09T02:20:08.473Z,9.83
2022-09-09T02:22:37.031Z,11.47
2022-09-09T02:25:06.701Z,10.83
2022-09-09T02:27:34.433Z,7.47
2022-09-09T02:30:05.986Z,8.33
2022-09-09T02:32:34.705Z,7.43
2022-09-09T02:35:06.061Z,7.30
2022-09-09T02:37:37.438Z,3.13
2022-09-09T02:40:05.973Z,7.27
2022-09-09T02:42:33.622Z,3.80
2022-09-09T02:45:01.141Z,7.13
2022-09-09T02:47:33.675Z,5.03
2022-09-09T02:50:07.190Z,12.37
2022-09-09T02:52:41.165Z,6.53
2022-09-09T02:55:13.910Z,5.77
2022-09-09T02:57:42.327Z,8.63
2022-09-09T03:00:12.015Z,3.23
2022-09-09T03:02:40.894Z,8.77
2022-09-09T03:05:08.962Z,3.40
2022-09-09T03:07:36.506Z,6.23
2022-09-09T03:10:05.082Z,6.93
2022-09-09T03:12:34.541Z,8.43
2022-09-09T03:15:02.067Z,4.67
2022-09-09T03:17:29.596Z,5.07
2022-09-09T03:19:58.823Z,5.17
2022-09-09T03:22:26.436Z,4.40
2022-09-09T03:24:54.006Z,4.07
2022-09-09T03:27:21.867Z,4.13
2022-09-09T03:29:52.534Z,8.57
2022-09-09T03:32:20.432Z,6.70
2022-09-09T03:34:50.458Z,5.37
2022-09-09T03:37:19.595Z,7.87
2022-09-09T03:39:47.202Z,2.23
2022-09-09T03:42:19.613Z,5.10
2022-09-09T03:44:51.013Z,3.63
2022-09-09T03:47:20.126Z,2.87
2022-09-09T03:49:47.818Z,4.70
2022-09-09T03:52:15.430Z,3.73
2022-09-09T03:54:44.418Z,1.93
2022-09-09T03:57:12.107Z,5.97
2022-09-09T03:59:40.127Z,6.03
2022-09-09T04:02:07.726Z,7.40
2022-09-09T04:04:35.294Z,8.33
2022-09-09T04:07:02.988Z,6.27
2022-09-09T04:09:30.974Z,6.03
2022-09-09T04:11:59.866Z,3.77
2022-09-09T04:14:29.677Z,7.30
2022-09-09T04:16:58.383Z,5.77
2022-09-09T04:19:26.107Z,8.73
2022-09-09T04:21:53.877Z,4.00
2022-09-09T04:24:22.769Z,5.40
2022-09-09T04:26:50.965Z,6.20
2022-09-09T04:29:20.136Z,5.23
2022-09-09T04:31:47.854Z,6.80
2022-09-09T04:34:15.458Z,7.63
2022-09-09T04:36:42.983Z,4.60
2022-09-09T04:39:10.516Z,6.80
2022-09-09T04:41:38.674Z,8.13
2022-09-09T04:44:06.701Z,7.90
2022-09-09T04:46:36.248Z,3.37
2022-09-09T04:49:03.718Z,11.23
2022-09-09T04:51:32.117Z,8.27
2022-09-09T04:53:59.765Z,4.40
2022-09-09T04:56:29.125Z,4.27
2022-09-09T04:58:56.858Z,6.30
2022-09-09T05:01:25.507Z,8.17
2022-09-09T05:03:54.603Z,3.30
2022-09-09T05:06:23.769Z,7.87
2022-09-09T05:08:51.473Z,4.57
2022-09-09T05:11:20.795Z,4.20
2022-09-09T05:13:50.930Z,3.90
2022-09-09T05:16:19.142Z,4.17
2022-09-09T05:18:47.847Z,4.60
2022-09-09T05:21:18.076Z,8.50
2022-09-09T05:23:47.242Z,5.10
2022-09-09T05:26:18.224Z,5.97
2022-09-09T05:28:46.455Z,6.33
2022-09-09T05:31:15.916Z,7.13
2022-09-09T05:33:46.586Z,4.47
2022-09-09T05:36:16.574Z,6.93
2022-09-09T05:38:44.844Z,8.13
2022-09-09T05:41:13.368Z,4.83
2022-09-09T05:43:41.178Z,4.97
2022-09-09T05:46:10.425Z,6.27
2022-09-09T05:48:40.200Z,7.23
2022-09-09T05:51:09.505Z,3.77
2022-09-09T05:53:39.201Z,5.37
2022-09-09T05:56:08.985Z,4.40
2022-09-09T05:58:37.013Z,8.07
2022-09-09T06:01:09.210Z,9.57
2022-09-09T06:03:37.404Z,8.43
2022-09-09T06:06:07.210Z,5.13
2022-09-09T06:08:35.628Z,8.13
2022-09-09T06:11:05.642Z,5.10
2022-09-09T06:13:33.642Z,8.90
2022-09-09T06:16:01.991Z,8.17
2022-09-09T06:18:30.513Z,8.37
2022-09-09T06:20:59.250Z,8.40
2022-09-09T06:23:27.452Z,5.60
2022-09-09T06:26:04.715Z,7.30
2022-09-09T06:28:32.272Z,10.43
2022-09-09T06:31:00.821Z,6.43
2022-09-09T06:33:28.867Z,7.77
2022-09-09T06:35:58.065Z,8.20
2022-09-09T06:38:25.714Z,4.20
2022-09-09T06:40:55.765Z,10.80
2022-09-09T06:43:24.867Z,5.40
2022-09-09T06:45:56.890Z,10.33
2022-09-09T06:48:24.482Z,7.13
2022-09-09T06:50:52.381Z,3.63
2022-09-09T06:53:21.041Z,5.40
2022-09-09T06:55:48.897Z,3.77
2022-09-09T06:58:16.737Z,4.37
2022-09-09T07:00:45.664Z,5.40
2022-09-09T07:03:13.253Z,4.83
2022-09-09T07:05:40.749Z,4.63
2022-09-09T07:08:08.340Z,5.13
2022-09-09T07:10:36.385Z,3.07
2022-09-09T07:13:03.953Z,3.67
2022-09-09T07:15:33.745Z,5.57
2022-09-09T07:18:04.697Z,4.77
2022-09-09T07:20:32.199Z,2.97
2022-09-09T07:23:00.380Z,5.83
2022-09-09T07:25:29.887Z,4.20
2022-09-09T07:27:58.225Z,5.13
2022-09-09T07:30:27.977Z,3.53
2022-09-09T07:32:58.016Z,3.17
2022-09-09T07:35:27.819Z,5.20
2022-09-09T07:37:55.340Z,7.60
2022-09-09T07:40:23.104Z,4.20
2022-09-09T07:42:50.791Z,5.93
2022-09-09T07:45:18.335Z,4.93
2022-09-09T07:47:46.058Z,11.00
2022-09-09T07:50:13.733Z,5.50
2022-09-09T07:52:42.781Z,6.13
2022-09-09T07:55:10.355Z,3.57
2022-09-09T07:57:38.503Z,6.77
2022-09-09T08:00:07.033Z,10.33
2022-09-09T08:02:34.591Z,3.20
2022-09-09T08:05:02.123Z,6.80
2022-09-09T08:07:30.153Z,5.17
2022-09-09T08:09:59.409Z,4.97
2022-09-09T08:12:26.956Z,4.97
2022-09-09T08:14:55.853Z,9.17
2022-09-09T08:17:23.650Z,3.90
2022-09-09T08:19:51.414Z,8.90
2022-09-09T08:22:18.941Z,8.30
2022-09-09T08:24:46.423Z,6.73
2022-09-09T08:27:15.312Z,5.93
2022-09-09T08:29:42.863Z,11.33
2022-09-09T08:32:10.362Z,8.07
2022-09-09T08:34:41.264Z,6.07
2022-09-09T08:37:09.003Z,10.03
2022-09-09T08:39:37.286Z,6.87
2022-09-09T08:42:23.583Z,9.53
2022-09-09T08:44:59.676Z,5.37
2022-09-09T08:47:34.322Z,4.70
2022-09-09T08:50:10.454Z,7.13
2022-09-09T08:52:40.958Z,8.00
2022-09-09T08:55:22.231Z,5.00
2022-09-09T08:57:52.503Z,8.37
2022-09-09T09:00:20.147Z,5.93
2022-09-09T09:02:51.249Z,3.23
2022-09-09T09:05:22.698Z,5.37
2022-09-09T09:07:58.261Z,9.33
2022-09-09T09:10:42.106Z,6.67
2022-09-09T09:13:18.084Z,13.20
2022-09-09T09:15:46.694Z,12.27
2022-09-09T09:18:14.950Z,6.07
2022-09-09T09:20:50.489Z,3.13
2022-09-09T09:23:24.266Z,6.23
2022-09-09T09:25:53.602Z,6.57
2022-09-09T09:28:25.620Z,2.93
2022-09-09T09:30:55.953Z,5.80
2022-09-09T09:33:26.525Z,5.37
2022-09-09T09:35:54.518Z,4.50
2022-09-09T09:41:11.080Z,2.93
2022-09-09T09:43:43.325Z,3.33
2022-09-09T09:46:24.275Z,3.60
2022-09-09T09:48:58.866Z,2.70
2022-09-09T09:51:27.317Z,1.93
2022-09-09T09:53:55.446Z,4.43
2022-09-09T09:56:29.635Z,3.43
2022-09-09T09:58:59.620Z,3.27
2022-09-09T10:01:30.515Z,4.77
2022-09-09T10:04:02.534Z,4.10
2022-09-09T10:06:34.633Z,9.10
2022-09-09T10:09:04.101Z,4.10
2022-09-09T10:11:39.019Z,5.80
2022-09-09T10:14:18.367Z,1.63
2022-09-09T10:16:57.659Z,2.00
2022-09-09T10:19:32.180Z,3.20
2022-09-09T10:22:13.836Z,4.20
2022-09-09T10:25:11.973Z,2.87
2022-09-09T10:27:47.867Z,4.20
2022-09-09T10:30:19.249Z,2.93
2022-09-09T10:32:52.116Z,4.37
2022-09-09T10:35:37.956Z,5.73
2022-09-09T10:38:19.378Z,1.77
2022-09-09T10:41:07.052Z,2.13
2022-09-09T10:43:46.351Z,5.67
2022-09-09T10:46:19.958Z,4.17
2022-09-09T10:49:00.166Z,2.03
2022-09-09T10:51:35.990Z,2.67
2022-09-09T10:54:14.781Z,2.00
2022-09-09T10:56:44.655Z,4.20
2022-09-09T10:59:14.714Z,1.40
2022-09-09T11:01:45.987Z,1.83
2022-09-09T11:04:18.958Z,5.97
2022-09-09T11:06:49.109Z,2.70
2022-09-09T11:09:19.172Z,5.70
2022-09-09T11:11:51.334Z,1.93
2022-09-09T11:14:22.527Z,4.43
2022-09-09T11:16:53.222Z,3.20
2022-09-09T11:19:25.510Z,1.50
2022-09-09T11:21:55.703Z,3.33
2022-09-09T11:24:27.656Z,7.13
2022-09-09T11:26:58.641Z,1.80
2022-09-09T11:29:50.317Z,4.27
2022-09-09T11:32:44.619Z,6.70
2022-09-09T11:35:25.078Z,5.60
2022-09-09T11:38:14.171Z,6.20
2022-09-09T11:40:42.358Z,4.50
2022-09-09T11:43:13.553Z,5.10
2022-09-09T11:45:42.254Z,5.10
2022-09-09T11:48:26.696Z,3.70
2022-09-09T11:51:03.871Z,5.27
2022-09-09T11:53:31.474Z,2.10
2022-09-09T11:56:04.770Z,6.43
2022-09-09T11:58:46.581Z,3.03
2022-09-09T12:01:38.365Z,2.70
2022-09-09T12:04:21.974Z,3.40
2022-09-09T12:06:53.795Z,8.23
2022-09-09T12:09:29.718Z,5.53
2022-09-09T12:12:07.981Z,2.00
2022-09-09T12:14:40.398Z,1.37
2022-09-09T12:17:12.725Z,2.30
2022-09-09T12:19:41.677Z,2.67
2022-09-09T12:22:16.351Z,1.27
2022-09-09T12:24:48.662Z,3.77
2022-09-09T12:27:21.443Z,3.80
2022-09-09T12:29:52.403Z,4.17
2022-09-09T12:32:25.054Z,5.33
2022-09-09T12:34:55.868Z,7.10
2022-09-09T12:37:28.746Z,4.13
2022-09-09T12:39:57.954Z,3.87
2022-09-09T12:42:26.150Z,6.30
2022-09-09T12:44:58.398Z,4.50
2022-09-09T12:47:32.124Z,3.80
2022-09-09T12:50:02.259Z,5.37
2022-09-09T12:52:32.006Z,4.73
2022-09-09T12:55:02.027Z,4.83
2022-09-09T12:57:35.545Z,3.40
2022-09-09T13:00:12.096Z,2.70
2022-09-09T13:02:49.003Z,9.63
2022-09-09T13:05:21.393Z,20.13
2022-09-09T13:07:49.212Z,10.33
2022-09-09T13:10:30.749Z,10.93
2022-09-09T13:13:05.907Z,7.30
2022-09-09T13:15:33.495Z,3.80
2022-09-09T13:18:03.143Z,4.43
2022-09-09T13:20:32.095Z,2.73
2022-09-09T13:22:59.856Z,7.00
2022-09-09T13:25:28.759Z,3.07
2022-09-09T13:27:59.559Z,4.40
2022-09-09T13:30:30.367Z,5.37
2022-09-09T13:33:20.672Z,2.10
2022-09-09T13:35:52.716Z,6.77
2022-09-09T13:38:20.362Z,5.87
2022-09-09T13:40:58.729Z,2.97
2022-09-09T13:43:27.437Z,4.13
2022-09-09T13:45:57.308Z,4.23
2022-09-09T13:48:25.602Z,3.10
2022-09-09T13:51:04.254Z,7.77
2022-09-09T13:53:31.789Z,5.00
2022-09-09T13:55:59.804Z,4.47
2022-09-09T13:58:27.605Z,4.23
2022-09-09T14:00:55.556Z,3.37
2022-09-09T14:03:23.550Z,6.63
2022-09-09T14:05:51.237Z,3.03
2022-09-09T14:08:26.124Z,5.20
2022-09-09T14:10:56.878Z,4.87
2022-09-09T14:13:24.405Z,4.33
2022-09-09T14:15:52.010Z,3.37
2022-09-09T14:18:19.615Z,3.23
2022-09-09T14:20:47.294Z,4.50
2022-09-09T14:23:16.441Z,4.23
2022-09-09T14:25:45.641Z,4.47
2022-09-09T14:28:14.267Z,3.73
2022-09-09T14:30:42.832Z,1.20
2022-09-09T14:33:13.041Z,3.23
2022-09-09T14:35:41.977Z,1.67
2022-09-09T14:38:10.074Z,3.03
2022-09-09T14:40:38.379Z,1.97
2022-09-09T14:43:07.906Z,6.30
2022-09-09T14:45:38.226Z,1.13
2022-09-09T14:48:05.917Z,4.30
2022-09-09T14:50:33.703Z,12.50
2022-09-09T14:53:01.224Z,4.47
2022-09-09T14:55:30.073Z,4.70
2022-09-09T14:57:58.008Z,6.67
2022-09-09T15:00:26.958Z,5.43
2022-09-09T15:02:55.501Z,7.53
2022-09-09T15:05:23.508Z,0.80
2022-09-09T15:07:51.562Z,2.93
2022-09-09T15:10:19.251Z,1.63
2022-09-09T15:12:46.770Z,1.30
2022-09-09T15:15:14.583Z,2.90
2022-09-09T15:17:43.457Z,1.30
2022-09-09T15:20:11.745Z,2.70
2022-09-09T15:22:39.742Z,3.30
2022-09-09T15:25:08.426Z,5.10
2022-09-09T15:27:36.038Z,3.83
2022-09-09T15:30:03.619Z,3.60
2022-09-09T15:32:31.206Z,3.17
2022-09-09T15:35:00.720Z,4.80
2022-09-09T15:37:28.235Z,6.60
2022-09-09T15:39:55.879Z,1.10
2022-09-09T15:42:23.387Z,5.67
2022-09-09T15:44:50.948Z,3.77
2022-09-09T15:47:18.762Z,2.77
2022-09-09T15:49:46.481Z,2.10
2022-09-09T15:52:15.435Z,7.00
2022-09-09T15:54:43.998Z,3.77
2022-09-09T15:57:13.813Z,4.83
2022-09-09T15:59:41.424Z,1.43
2022-09-09T16:02:09.130Z,7.13
2022-09-09T16:04:37.201Z,5.00
2022-09-09T16:07:06.615Z,1.83
2022-09-09T16:09:36.427Z,3.90
2022-09-09T16:12:07.271Z,2.57
2022-09-09T16:14:36.716Z,4.73
2022-09-09T16:17:06.170Z,5.30
2022-09-09T16:19:35.359Z,5.33
2022-09-09T16:22:03.358Z,4.67
2022-09-09T16:24:30.885Z,3.60
2022-09-09T16:27:00.087Z,2.13
2022-09-09T16:29:28.375Z,4.20
2022-09-09T16:32:01.221Z,2.73
2022-09-09T16:34:31.017Z,3.10
2022-09-09T16:36:58.559Z,4.77
2022-09-09T16:39:26.056Z,5.43
2022-09-09T16:41:53.594Z,4.53
2022-09-09T16:44:22.708Z,3.93
2022-09-09T16:46:56.703Z,2.83
2022-09-09T16:49:26.206Z,1.93
2022-09-09T16:51:54.622Z,4.37
2022-09-09T16:54:24.280Z,7.57
2022-09-09T16:56:52.182Z,5.67
2022-09-09T16:59:22.750Z,6.00
2022-09-09T17:01:51.960Z,3.13
2022-09-09T17:04:22.395Z,3.17
2022-09-09T17:06:51.436Z,2.53
2022-09-09T17:09:20.196Z,3.97
2022-09-09T17:11:48.818Z,10.13
2022-09-09T17:14:18.613Z,6.47
2022-09-09T17:16:47.949Z,6.23
2022-09-09T17:19:16.509Z,4.10
2022-09-09T17:22:12.724Z,4.80
2022-09-09T17:24:32.094Z,9.93
2022-09-09T17:26:59.655Z,7.43
2022-09-09T17:29:27.666Z,8.17
2022-09-09T17:31:57.782Z,5.77
2022-09-09T17:34:26.039Z,9.90
2022-09-09T17:36:54.029Z,8.17
2022-09-09T17:39:21.834Z,4.00
2022-09-09T17:41:49.463Z,3.87
2022-09-09T17:44:17.278Z,9.13
2022-09-09T17:46:46.464Z,4.97
2022-09-09T17:49:18.214Z,8.23
2022-09-09T17:51:46.727Z,6.93
2022-09-09T17:54:16.405Z,8.77
2022-09-09T17:56:44.921Z,4.47
2022-09-09T17:59:14.058Z,2.47
2022-09-09T18:01:44.607Z,3.80
2022-09-09T18:04:14.087Z,6.00
2022-09-09T18:06:44.684Z,4.30
2022-09-09T18:09:14.351Z,6.43
2022-09-09T18:11:45.392Z,5.40
2022-09-09T18:14:15.445Z,6.17
2022-09-09T18:16:44.043Z,5.60
2022-09-09T18:19:13.776Z,4.67
2022-09-09T18:21:44.825Z,3.37
2022-09-09T18:24:14.110Z,2.50
2022-09-09T18:26:42.928Z,10.37
2022-09-09T18:29:12.833Z,2.53
2022-09-09T18:31:42.619Z,2.53
2022-09-09T18:34:12.237Z,3.30
2022-09-09T18:36:44.326Z,2.20
2022-09-09T18:39:13.062Z,4.75
2022-09-09T18:41:42.065Z,2.10
2022-09-09T18:44:13.558Z,2.63
2022-09-09T18:46:41.438Z,1.27
2022-09-09T18:49:11.365Z,2.10
2022-09-09T18:51:41.092Z,4.30
2022-09-09T18:54:13.930Z,3.80
2022-09-09T18:56:42.214Z,1.50
2022-09-09T18:59:12.685Z,3.33
2022-09-09T19:01:40.478Z,6.93
2022-09-09T19:04:09.213Z,1.60
2022-09-09T19:06:40.255Z,3.10
2022-09-09T19:09:12.291Z,3.80
2022-09-09T19:11:40.676Z,2.17
2022-09-09T19:14:10.478Z,2.57
2022-09-09T19:16:39.137Z,3.37
2022-09-09T19:19:09.934Z,5.03
2022-09-09T19:21:38.455Z,3.57
2022-09-09T19:24:08.039Z,2.53
2022-09-09T19:26:40.433Z,5.20
2022-09-09T19:29:10.036Z,3.20
2022-09-09T19:31:38.280Z,6.47
2022-09-09T19:34:05.978Z,3.03
2022-09-09T19:36:34.280Z,2.83
2022-09-09T19:39:03.144Z,4.37
2022-09-09T19:41:32.406Z,3.53
2022-09-09T19:44:03.778Z,1.90
2022-09-09T19:46:33.765Z,3.40
2022-09-09T19:49:01.929Z,1.40
2022-09-09T19:51:31.042Z,3.13
2022-09-09T19:54:00.655Z,2.23
2022-09-09T19:56:29.065Z,2.97
2022-09-09T19:58:57.625Z,1.60
2022-09-09T20:01:28.400Z,2.87
2022-09-09T20:03:58.095Z,1.87
2022-09-09T20:06:28.780Z,4.90
2022-09-09T20:08:57.909Z,2.03
2022-09-09T20:11:26.607Z,3.27
2022-09-09T20:13:54.508Z,2.47
2022-09-09T20:16:23.946Z,6.20
2022-09-09T20:18:56.434Z,5.93
2022-09-09T20:21:26.340Z,2.23
2022-09-09T20:23:54.434Z,6.27
2022-09-09T20:26:25.045Z,2.57
2022-09-09T20:28:53.681Z,8.37
2022-09-09T20:31:23.679Z,4.60
2022-09-09T20:33:52.976Z,6.17
2022-09-09T20:36:21.939Z,4.30
2022-09-09T20:38:51.378Z,5.40
2022-09-09T20:41:21.591Z,4.77
2022-09-09T20:43:50.194Z,2.37
2022-09-09T20:46:18.895Z,2.53
2022-09-09T20:48:46.804Z,4.00
2022-09-09T20:51:17.240Z,4.67
2022-09-09T20:53:44.916Z,3.43
2022-09-09T20:56:13.156Z,6.13
2022-09-09T20:58:40.848Z,4.33
2022-09-09T21:01:08.480Z,3.47
2022-09-09T21:03:37.881Z,4.30
2022-09-09T21:06:06.426Z,7.80
2022-09-09T21:08:36.712Z,5.00
2022-09-09T21:11:04.743Z,4.33
2022-09-09T21:13:33.143Z,3.67
2022-09-09T21:16:00.813Z,6.57
2022-09-09T21:18:29.381Z,7.20
2022-09-09T21:20:57.503Z,8.30
2022-09-09T21:23:25.845Z,5.70
2022-09-09T21:25:55.394Z,17.17
2022-09-09T21:28:23.422Z,5.27
2022-09-09T21:30:52.268Z,2.87
2022-09-09T21:33:22.297Z,3.47
2022-09-09T21:35:50.731Z,2.07
2022-09-09T21:38:20.147Z,4.33
2022-09-09T21:40:50.049Z,4.77
2022-09-09T21:43:19.998Z,5.60
2022-09-09T21:45:48.036Z,4.40
2022-09-09T21:48:18.438Z,4.43
2022-09-09T21:50:48.339Z,3.87
2022-09-09T21:53:18.918Z,6.27
2022-09-09T21:55:47.769Z,3.93
2022-09-09T21:58:15.425Z,2.90
2022-09-09T22:00:46.256Z,5.87
2022-09-09T22:03:14.425Z,5.67
2022-09-09T22:05:42.826Z,6.07
2022-09-09T22:08:10.691Z,6.60
2022-09-09T22:10:38.961Z,5.43
2022-09-09T22:13:07.200Z,6.00
2022-09-09T22:15:36.571Z,3.83
2022-09-09T22:18:06.026Z,5.73
2022-09-09T22:20:34.920Z,11.30
2022-09-09T22:23:02.793Z,6.17
2022-09-09T22:25:35.482Z,7.73
2022-09-09T22:28:03.360Z,2.83
2022-09-09T22:30:30.969Z,6.40
2022-09-09T22:32:59.081Z,5.73
2022-09-09T22:35:28.949Z,4.80
2022-09-09T22:37:57.170Z,7.40
2022-09-09T22:40:24.895Z,3.80
2022-09-09T22:42:53.374Z,3.43
2022-09-09T22:45:21.906Z,2.57
2022-09-09T22:47:49.458Z,5.07
2022-09-09T22:50:17.129Z,9.87
2022-09-09T22:52:46.022Z,5.10
2022-09-09T22:55:13.561Z,7.43
2022-09-09T22:57:42.047Z,4.77
2022-09-09T23:00:10.644Z,6.53
2022-09-09T23:02:40.862Z,5.17
2022-09-09T23:05:09.574Z,4.80
2022-09-09T23:07:37.397Z,4.50
2022-09-09T23:10:07.146Z,3.83
2022-09-09T23:12:35.101Z,4.20
2022-09-09T23:15:03.410Z,7.33
2022-09-09T23:17:31.942Z,3.03
2022-09-09T23:19:59.486Z,4.33
2022-09-09T23:22:27.830Z,4.33
2022-09-09T23:24:55.418Z,2.67
2022-09-09T23:27:25.055Z,4.77
2022-09-09T23:29:52.631Z,3.53
2022-09-09T23:32:20.167Z,2.87
2022-09-09T23:34:48.665Z,7.50
2022-09-09T23:37:16.469Z,1.70
2022-09-09T23:39:44.214Z,2.33
2022-09-09T23:42:13.898Z,2.63
2022-09-09T23:44:42.989Z,1.83
2022-09-09T23:47:10.755Z,3.70
2022-09-09T23:49:39.176Z,2.23
2022-09-09T23:52:07.378Z,2.27
2022-09-09T23:54:35.922Z,2.83
2022-09-09T23:57:04.887Z,3.57
2022-09-09T23:59:32.668Z,4.17
